sensor_id;sensor_type;location;lat;lon;timestamp;pressure;altitude;pressure_sealevel;temperature;humidity
65276;BME280;51875;49.994;14.052;2023-03-20T00:00:26;98413.84;;;6.05;100.00
65276;BME280;51875;49.994;14.052;2023-03-20T00:02:04;98412.97;;;6.06;100.00
65276;BME280;51875;49.994;14.052;2023-03-20T00:03:21;98410.25;;;6.20;100.00
65276;BME280;51875;49.994;14.052;2023-03-20T00:04:36;98410.16;;;6.26;100.00
65276;BME280;51875;49.994;14.052;2023-03-20T00:05:52;98408.34;;;6.34;100.00
65276;BME280;51875;49.994;14.052;2023-03-20T00:07:08;98415.44;;;6.20;100.00
65276;BME280;51875;49.994;14.052;2023-03-20T00:08:26;98417.25;;;6.13;100.00
65276;BME280;51875;49.994;14.052;2023-03-20T00:09:42;98416.38;;;6.16;100.00
65276;BME280;51875;49.994;14.052;2023-03-20T00:10:58;98415.28;;;6.34;100.00
65276;BME280;51875;49.994;14.052;2023-03-20T00:12:17;98419.72;;;6.24;100.00
65276;BME280;51875;49.994;14.052;2023-03-20T00:13:36;98421.53;;;6.17;100.00
65276;BME280;51875;49.994;14.052;2023-03-20T00:14:52;98430.25;;;6.12;100.00
65276;BME280;51875;49.994;14.052;2023-03-20T00:16:08;98433.03;;;5.90;100.00
65276;BME280;51875;49.994;14.052;2023-03-20T00:17:25;98429.63;;;5.82;100.00
65276;BME280;51875;49.994;14.052;2023-03-20T00:18:41;98432.09;;;5.97;100.00
65276;BME280;51875;49.994;14.052;2023-03-20T00:19:57;98432.88;;;6.10;100.00
65276;BME280;51875;49.994;14.052;2023-03-20T00:21:18;98431.72;;;6.38;100.00
65276;BME280;51875;49.994;14.052;2023-03-20T00:22:34;98419.50;;;6.46;100.00
65276;BME280;51875;49.994;14.052;2023-03-20T00:23:50;98428.19;;;6.45;100.00
65276;BME280;51875;49.994;14.052;2023-03-20T00:25:05;98420.69;;;6.15;100.00
65276;BME280;51875;49.994;14.052;2023-03-20T00:26:28;98430.63;;;5.70;100.00
65276;BME280;51875;49.994;14.052;2023-03-20T00:27:45;98431.47;;;5.70;100.00
65276;BME280;51875;49.994;14.052;2023-03-20T00:29:02;98427.19;;;5.64;100.00
65276;BME280;51875;49.994;14.052;2023-03-20T00:30:27;98434.09;;;5.65;100.00
65276;BME280;51875;49.994;14.052;2023-03-20T00:31:44;98434.22;;;5.50;100.00
65276;BME280;51875;49.994;14.052;2023-03-20T00:32:59;98430.06;;;5.26;100.00
65276;BME280;51875;49.994;14.052;2023-03-20T00:34:18;98430.94;;;5.26;100.00
65276;BME280;51875;49.994;14.052;2023-03-20T00:35:34;98427.44;;;5.32;100.00
65276;BME280;51875;49.994;14.052;2023-03-20T00:36:50;98422.31;;;5.21;100.00
65276;BME280;51875;49.994;14.052;2023-03-20T00:38:07;98420.78;;;4.90;100.00
65276;BME280;51875;49.994;14.052;2023-03-20T00:39:23;98423.16;;;5.25;100.00
65276;BME280;51875;49.994;14.052;2023-03-20T00:40:38;98430.16;;;5.13;100.00
65276;BME280;51875;49.994;14.052;2023-03-20T00:41:59;98430.31;;;4.85;100.00
65276;BME280;51875;49.994;14.052;2023-03-20T00:43:16;98433.66;;;5.04;100.00
65276;BME280;51875;49.994;14.052;2023-03-20T00:44:37;98425.88;;;5.03;100.00
65276;BME280;51875;49.994;14.052;2023-03-20T00:45:53;98435.28;;;5.21;100.00
65276;BME280;51875;49.994;14.052;2023-03-20T00:47:16;98430.03;;;5.35;100.00
65276;BME280;51875;49.994;14.052;2023-03-20T00:48:33;98428.91;;;5.67;100.00
65276;BME280;51875;49.994;14.052;2023-03-20T00:49:50;98425.06;;;4.98;100.00
65276;BME280;51875;49.994;14.052;2023-03-20T00:51:06;98426.03;;;4.76;100.00
65276;BME280;51875;49.994;14.052;2023-03-20T00:52:23;98426.03;;;4.72;100.00
65276;BME280;51875;49.994;14.052;2023-03-20T00:53:39;98418.19;;;4.89;100.00
65276;BME280;51875;49.994;14.052;2023-03-20T00:54:55;98428.53;;;4.97;100.00
65276;BME280;51875;49.994;14.052;2023-03-20T00:57:59;98431.09;;;5.00;100.00
65276;BME280;51875;49.994;14.052;2023-03-20T00:59:18;98424.75;;;5.41;100.00
65276;BME280;51875;49.994;14.052;2023-03-20T01:00:42;98425.69;;;5.34;100.00
65276;BME280;51875;49.994;14.052;2023-03-20T01:02:00;98425.50;;;5.60;100.00
65276;BME280;51875;49.994;14.052;2023-03-20T01:03:21;98423.78;;;5.59;100.00
65276;BME280;51875;49.994;14.052;2023-03-20T01:04:40;98427.13;;;5.75;100.00
65276;BME280;51875;49.994;14.052;2023-03-20T01:05:56;98425.47;;;5.65;100.00
65276;BME280;51875;49.994;14.052;2023-03-20T01:07:13;98435.25;;;5.26;100.00
65276;BME280;51875;49.994;14.052;2023-03-20T01:08:29;98426.66;;;5.19;100.00
65276;BME280;51875;49.994;14.052;2023-03-20T01:09:45;98424.03;;;5.25;100.00
65276;BME280;51875;49.994;14.052;2023-03-20T01:11:01;98419.63;;;5.35;100.00
65276;BME280;51875;49.994;14.052;2023-03-20T01:12:17;98422.28;;;5.27;100.00
65276;BME280;51875;49.994;14.052;2023-03-20T01:13:32;98428.31;;;5.31;100.00
65276;BME280;51875;49.994;14.052;2023-03-20T01:14:52;98424.81;;;5.35;100.00
65276;BME280;51875;49.994;14.052;2023-03-20T01:16:21;98423.41;;;4.81;100.00
65276;BME280;51875;49.994;14.052;2023-03-20T01:17:37;98423.44;;;4.72;100.00
65276;BME280;51875;49.994;14.052;2023-03-20T01:18:52;98426.84;;;4.86;100.00
65276;BME280;51875;49.994;14.052;2023-03-20T01:20:35;98423.41;;;4.86;100.00
65276;BME280;51875;49.994;14.052;2023-03-20T01:21:51;98418.19;;;4.87;100.00
65276;BME280;51875;49.994;14.052;2023-03-20T01:23:06;98429.38;;;4.99;100.00
65276;BME280;51875;49.994;14.052;2023-03-20T01:24:22;98420.66;;;5.07;100.00
65276;BME280;51875;49.994;14.052;2023-03-20T01:25:38;98419.75;;;5.13;100.00
65276;BME280;51875;49.994;14.052;2023-03-20T01:26:54;98418.16;;;4.93;100.00
65276;BME280;51875;49.994;14.052;2023-03-20T01:28:16;98415.47;;;5.07;100.00
65276;BME280;51875;49.994;14.052;2023-03-20T01:29:33;98420.59;;;5.20;100.00
65276;BME280;51875;49.994;14.052;2023-03-20T01:30:48;98425.81;;;5.18;100.00
65276;BME280;51875;49.994;14.052;2023-03-20T01:32:10;98422.31;;;5.22;100.00
65276;BME280;51875;49.994;14.052;2023-03-20T01:33:27;98418.03;;;5.12;100.00
65276;BME280;51875;49.994;14.052;2023-03-20T01:34:43;98420.78;;;4.84;100.00
65276;BME280;51875;49.994;14.052;2023-03-20T01:35:59;98421.59;;;4.94;100.00
65276;BME280;51875;49.994;14.052;2023-03-20T01:37:21;98421.66;;;4.83;100.00
65276;BME280;51875;49.994;14.052;2023-03-20T01:38:38;98414.56;;;5.13;100.00
65276;BME280;51875;49.994;14.052;2023-03-20T01:39:55;98419.84;;;5.04;100.00
65276;BME280;51875;49.994;14.052;2023-03-20T01:41:14;98417.16;;;5.15;100.00
65276;BME280;51875;49.994;14.052;2023-03-20T01:42:31;98416.47;;;4.89;100.00
65276;BME280;51875;49.994;14.052;2023-03-20T01:43:47;98416.59;;;4.60;100.00
65276;BME280;51875;49.994;14.052;2023-03-20T01:45:13;98414.94;;;4.42;100.00
65276;BME280;51875;49.994;14.052;2023-03-20T01:46:30;98422.72;;;4.40;100.00
65276;BME280;51875;49.994;14.052;2023-03-20T01:47:47;98416.63;;;4.57;100.00
65276;BME280;51875;49.994;14.052;2023-03-20T01:50:43;98417.34;;;4.82;100.00
65276;BME280;51875;49.994;14.052;2023-03-20T01:51:59;98418.41;;;4.31;100.00
65276;BME280;51875;49.994;14.052;2023-03-20T01:53:19;98422.69;;;4.46;100.00
65276;BME280;51875;49.994;14.052;2023-03-20T01:54:38;98420.97;;;4.50;100.00
65276;BME280;51875;49.994;14.052;2023-03-20T01:55:57;98416.69;;;4.36;100.00
65276;BME280;51875;49.994;14.052;2023-03-20T01:57:17;98416.69;;;4.30;100.00
65276;BME280;51875;49.994;14.052;2023-03-20T01:58:37;98416.72;;;4.24;100.00
65276;BME280;51875;49.994;14.052;2023-03-20T02:00:10;98422.84;;;3.87;100.00
65276;BME280;51875;49.994;14.052;2023-03-20T02:01:28;98415.03;;;3.96;100.00
65276;BME280;51875;49.994;14.052;2023-03-20T02:02:46;98413.31;;;4.09;100.00
65276;BME280;51875;49.994;14.052;2023-03-20T02:04:02;98420.22;;;4.01;100.00
65276;BME280;51875;49.994;14.052;2023-03-20T02:05:20;98414.16;;;4.07;100.00
65276;BME280;51875;49.994;14.052;2023-03-20T02:06:36;98419.34;;;4.10;100.00
65276;BME280;51875;49.994;14.052;2023-03-20T02:08:08;98415.88;;;4.14;100.00
65276;BME280;51875;49.994;14.052;2023-03-20T02:09:26;98415.03;;;4.10;100.00
65276;BME280;51875;49.994;14.052;2023-03-20T02:10:43;98413.28;;;4.17;100.00
65276;BME280;51875;49.994;14.052;2023-03-20T02:12:00;98421.88;;;4.30;100.00
65276;BME280;51875;49.994;14.052;2023-03-20T02:13:16;98421.03;;;4.19;100.00
65276;BME280;51875;49.994;14.052;2023-03-20T02:14:32;98419.28;;;4.35;100.00
65276;BME280;51875;49.994;14.052;2023-03-20T02:17:16;98414.06;;;4.44;100.00
65276;BME280;51875;49.994;14.052;2023-03-20T02:18:32;98417.47;;;4.57;100.00
65276;BME280;51875;49.994;14.052;2023-03-20T02:20:13;98421.88;;;4.32;100.00
65276;BME280;51875;49.994;14.052;2023-03-20T02:36:50;98411.44;;;4.52;100.00
65276;BME280;51875;49.994;14.052;2023-03-20T02:41:38;98421.81;;;4.47;100.00
65276;BME280;51875;49.994;14.052;2023-03-20T02:43:06;98417.50;;;4.48;100.00
65276;BME280;51875;49.994;14.052;2023-03-20T02:47:37;98413.25;;;4.25;100.00
65276;BME280;51875;49.994;14.052;2023-03-20T02:49:00;98409.78;;;4.31;100.00
65276;BME280;51875;49.994;14.052;2023-03-20T02:50:43;98409.75;;;4.37;100.00
65276;BME280;51875;49.994;14.052;2023-03-20T02:53:55;98418.44;;;4.28;100.00
65276;BME280;51875;49.994;14.052;2023-03-20T02:55:31;98421.09;;;3.80;100.00
65276;BME280;51875;49.994;14.052;2023-03-20T02:58:27;98416.63;;;4.47;100.00
65276;BME280;51875;49.994;14.052;2023-03-20T03:00:09;98418.44;;;4.30;100.00
65276;BME280;51875;49.994;14.052;2023-03-20T03:01:51;98410.63;;;4.37;100.00
65276;BME280;51875;49.994;14.052;2023-03-20T03:03:11;98413.09;;;4.64;100.00
65276;BME280;51875;49.994;14.052;2023-03-20T03:04:32;98416.59;;;4.61;100.00
65276;BME280;51875;49.994;14.052;2023-03-20T03:05:54;98418.22;;;4.81;100.00
65276;BME280;51875;49.994;14.052;2023-03-20T03:07:12;98414.78;;;4.73;100.00
65276;BME280;51875;49.994;14.052;2023-03-20T03:08:32;98420.06;;;4.57;100.00
65276;BME280;51875;49.994;14.052;2023-03-20T03:09:55;98418.38;;;4.41;100.00
65276;BME280;51875;49.994;14.052;2023-03-20T03:11:12;98423.59;;;4.37;100.00
65276;BME280;51875;49.994;14.052;2023-03-20T03:12:34;98419.97;;;4.73;100.00
65276;BME280;51875;49.994;14.052;2023-03-20T03:13:54;98422.59;;;4.71;100.00
65276;BME280;51875;49.994;14.052;2023-03-20T03:15:18;98420.88;;;4.67;100.00
65276;BME280;51875;49.994;14.052;2023-03-20T03:16:37;98419.13;;;4.77;100.00
65276;BME280;51875;49.994;14.052;2023-03-20T03:17:57;98420.81;;;4.79;100.00
65276;BME280;51875;49.994;14.052;2023-03-20T03:19:25;98421.66;;;4.88;100.00
65276;BME280;51875;49.994;14.052;2023-03-20T03:20:44;98429.34;;;5.03;100.00
65276;BME280;51875;49.994;14.052;2023-03-20T03:22:00;98422.31;;;5.22;100.00
65276;BME280;51875;49.994;14.052;2023-03-20T03:23:28;98425.06;;;4.94;100.00
65276;BME280;51875;49.994;14.052;2023-03-20T03:24:47;98428.44;;;5.14;100.00
65276;BME280;51875;49.994;14.052;2023-03-20T03:26:04;98427.56;;;5.08;100.00
65276;BME280;51875;49.994;14.052;2023-03-20T03:27:26;98423.22;;;5.17;100.00
65276;BME280;51875;49.994;14.052;2023-03-20T03:28:46;98427.66;;;4.93;100.00
65276;BME280;51875;49.994;14.052;2023-03-20T03:30:28;98431.84;;;5.20;100.00
65276;BME280;51875;49.994;14.052;2023-03-20T03:31:45;98431.94;;;5.05;100.00
65276;BME280;51875;49.994;14.052;2023-03-20T03:34:26;98433.53;;;5.26;100.00
65276;BME280;51875;49.994;14.052;2023-03-20T03:35:43;98434.28;;;5.42;100.00
65276;BME280;51875;49.994;14.052;2023-03-20T03:37:07;98435.09;;;5.49;100.00
65276;BME280;51875;49.994;14.052;2023-03-20T03:38:47;98433.34;;;5.54;100.00
65276;BME280;51875;49.994;14.052;2023-03-20T03:40:19;98429.78;;;5.64;100.00
65276;BME280;51875;49.994;14.052;2023-03-20T03:41:44;98430.63;;;5.70;100.00
65276;BME280;51875;49.994;14.052;2023-03-20T03:44:30;98429.63;;;5.82;100.00
65276;BME280;51875;49.994;14.052;2023-03-20T03:47:18;98434.81;;;5.88;100.00
65276;BME280;51875;49.994;14.052;2023-03-20T03:48:40;98435.59;;;5.94;100.00
65276;BME280;51875;49.994;14.052;2023-03-20T03:50:03;98435.56;;;5.96;100.00
65276;BME280;51875;49.994;14.052;2023-03-20T03:51:23;98433.03;;;5.88;100.00
65276;BME280;51875;49.994;14.052;2023-03-20T03:52:40;98434.81;;;5.88;100.00
65276;BME280;51875;49.994;14.052;2023-03-20T03:54:11;98430.38;;;5.98;100.00
65276;BME280;51875;49.994;14.052;2023-03-20T03:55:33;98434.66;;;6.05;100.00
65276;BME280;51875;49.994;14.052;2023-03-20T03:56:50;98437.25;;;6.05;100.00
65276;BME280;51875;49.994;14.052;2023-03-20T03:58:14;98430.25;;;6.15;100.00
65276;BME280;51875;49.994;14.052;2023-03-20T03:59:36;98438.94;;;6.12;100.00
65276;BME280;51875;49.994;14.052;2023-03-20T04:00:53;98440.00;;;5.88;100.00
65276;BME280;51875;49.994;14.052;2023-03-20T04:02:11;98441.59;;;6.04;100.00
65276;BME280;51875;49.994;14.052;2023-03-20T04:03:34;98442.38;;;6.16;100.00
65276;BME280;51875;49.994;14.052;2023-03-20T04:04:53;98439.69;;;6.20;100.00
65276;BME280;51875;49.994;14.052;2023-03-20T04:06:10;98445.13;;;5.94;100.00
65276;BME280;51875;49.994;14.052;2023-03-20T04:07:30;98445.13;;;5.94;100.00
65276;BME280;51875;49.994;14.052;2023-03-20T04:08:45;98452.00;;;6.04;100.00
65276;BME280;51875;49.994;14.052;2023-03-20T04:10:02;98442.41;;;6.11;100.00
65276;BME280;51875;49.994;14.052;2023-03-20T04:11:20;98451.44;;;5.67;100.00
65276;BME280;51875;49.994;14.052;2023-03-20T04:12:39;98450.63;;;5.57;100.00
65276;BME280;51875;49.994;14.052;2023-03-20T04:13:55;98447.31;;;5.36;100.00
65276;BME280;51875;49.994;14.052;2023-03-20T04:15:12;98448.28;;;5.24;100.00
65276;BME280;51875;49.994;14.052;2023-03-20T04:16:28;98445.69;;;5.19;100.00
65276;BME280;51875;49.994;14.052;2023-03-20T04:17:43;98443.09;;;5.19;100.00
65276;BME280;51875;49.994;14.052;2023-03-20T04:18:59;98443.06;;;5.21;100.00
65276;BME280;51875;49.994;14.052;2023-03-20T04:20:15;98440.56;;;5.10;100.00
65276;BME280;51875;49.994;14.052;2023-03-20T04:21:31;98436.22;;;5.07;100.00
65276;BME280;51875;49.994;14.052;2023-03-20T04:22:47;98437.09;;;5.08;100.00
65276;BME280;51875;49.994;14.052;2023-03-20T04:24:03;98440.44;;;5.30;100.00
65276;BME280;51875;49.994;14.052;2023-03-20T04:25:21;98443.88;;;5.34;100.00
65276;BME280;51875;49.994;14.052;2023-03-20T04:26:38;98436.97;;;5.28;100.00
65276;BME280;51875;49.994;14.052;2023-03-20T04:27:55;98447.41;;;5.20;100.00
65276;BME280;51875;49.994;14.052;2023-03-20T04:29:10;98442.22;;;5.25;100.00
65276;BME280;51875;49.994;14.052;2023-03-20T04:30:26;98441.47;;;5.01;100.00
65276;BME280;51875;49.994;14.052;2023-03-20T04:31:41;98447.34;;;5.30;100.00
65276;BME280;51875;49.994;14.052;2023-03-20T04:32:57;98447.47;;;5.06;100.00
65276;BME280;51875;49.994;14.052;2023-03-20T04:34:13;98449.16;;;5.15;100.00
65276;BME280;51875;49.994;14.052;2023-03-20T04:35:29;98451.72;;;5.23;100.00
65276;BME280;51875;49.994;14.052;2023-03-20T04:36:45;98442.19;;;5.23;100.00
65276;BME280;51875;49.994;14.052;2023-03-20T04:38:00;98441.34;;;5.20;100.00
65276;BME280;51875;49.994;14.052;2023-03-20T04:39:16;98437.88;;;5.24;100.00
65276;BME280;51875;49.994;14.052;2023-03-20T04:40:32;98444.84;;;5.16;100.00
65276;BME280;51875;49.994;14.052;2023-03-20T04:41:47;98441.44;;;5.06;100.00
65276;BME280;51875;49.994;14.052;2023-03-20T04:43:03;98444.94;;;4.99;100.00
65276;BME280;51875;49.994;14.052;2023-03-20T04:44:19;98441.47;;;5.00;100.00
65276;BME280;51875;49.994;14.052;2023-03-20T04:45:35;98444.00;;;5.12;100.00
65276;BME280;51875;49.994;14.052;2023-03-20T04:46:51;98446.63;;;5.09;100.00
65276;BME280;51875;49.994;14.052;2023-03-20T04:48:07;98434.47;;;5.09;100.00
65276;BME280;51875;49.994;14.052;2023-03-20T04:49:23;98443.06;;;5.24;100.00
65276;BME280;51875;49.994;14.052;2023-03-20T04:50:38;98441.31;;;5.25;100.00
65276;BME280;51875;49.994;14.052;2023-03-20T04:51:54;98447.38;;;5.27;100.00
65276;BME280;51875;49.994;14.052;2023-03-20T04:53:10;98441.31;;;5.23;100.00
65276;BME280;51875;49.994;14.052;2023-03-20T04:54:26;98451.75;;;5.15;100.00
65276;BME280;51875;49.994;14.052;2023-03-20T04:55:43;98449.94;;;5.31;100.00
65276;BME280;51875;49.994;14.052;2023-03-20T04:56:59;98450.03;;;5.16;100.00
65276;BME280;51875;49.994;14.052;2023-03-20T04:58:14;98445.75;;;5.08;100.00
65276;BME280;51875;49.994;14.052;2023-03-20T04:59:30;98441.44;;;5.11;100.00
65276;BME280;51875;49.994;14.052;2023-03-20T05:00:46;98441.50;;;4.98;100.00
65276;BME280;51875;49.994;14.052;2023-03-20T05:02:01;98438.84;;;5.03;100.00
65276;BME280;51875;49.994;14.052;2023-03-20T05:03:17;98446.66;;;5.01;100.00
65276;BME280;51875;49.994;14.052;2023-03-20T05:04:33;98445.75;;;5.10;100.00
65276;BME280;51875;49.994;14.052;2023-03-20T05:05:48;98443.97;;;5.15;100.00
65276;BME280;51875;49.994;14.052;2023-03-20T05:07:04;98449.09;;;5.28;100.00
65276;BME280;51875;49.994;14.052;2023-03-20T05:08:20;98450.00;;;5.23;100.00
65276;BME280;51875;49.994;14.052;2023-03-20T05:09:35;98455.09;;;5.34;100.00
65276;BME280;51875;49.994;14.052;2023-03-20T05:10:51;98451.59;;;5.42;100.00
65276;BME280;51875;49.994;14.052;2023-03-20T05:12:08;98456.81;;;5.37;100.00
65276;BME280;51875;49.994;14.052;2023-03-20T05:13:23;98450.63;;;5.57;100.00
65276;BME280;51875;49.994;14.052;2023-03-20T05:14:39;98446.91;;;5.89;100.00
65276;BME280;51875;49.994;14.052;2023-03-20T05:15:55;98450.28;;;6.03;100.00
65276;BME280;51875;49.994;14.052;2023-03-20T05:17:11;98451.38;;;5.71;100.00
65276;BME280;51875;49.994;14.052;2023-03-20T05:18:26;98449.53;;;5.84;100.00
65276;BME280;51875;49.994;14.052;2023-03-20T05:19:42;98448.66;;;5.87;100.00
65276;BME280;51875;49.994;14.052;2023-03-20T05:20:59;98448.53;;;5.99;100.00
65276;BME280;51875;49.994;14.052;2023-03-20T05:22:18;98446.72;;;6.12;100.00
65276;BME280;51875;49.994;14.052;2023-03-20T05:23:34;98447.50;;;6.20;100.00
65276;BME280;51875;49.994;14.052;2023-03-20T05:24:50;98450.16;;;6.16;100.00
65276;BME280;51875;49.994;14.052;2023-03-20T05:26:06;98452.84;;;6.08;100.00
65276;BME280;51875;49.994;14.052;2023-03-20T05:27:21;98451.88;;;6.15;100.00
65276;BME280;51875;49.994;14.052;2023-03-20T05:28:37;98450.88;;;6.27;100.00
65276;BME280;51875;49.994;14.052;2023-03-20T05:29:53;98449.97;;;6.36;100.00
65276;BME280;51875;49.994;14.052;2023-03-20T05:31:08;98455.13;;;6.39;100.00
65276;BME280;51875;49.994;14.052;2023-03-20T05:32:24;98447.34;;;6.34;100.00
65276;BME280;51875;49.994;14.052;2023-03-20T05:33:39;98453.34;;;6.43;100.00
65276;BME280;51875;49.994;14.052;2023-03-20T05:34:55;98450.72;;;6.46;100.00
65276;BME280;51875;49.994;14.052;2023-03-20T05:36:11;98446.31;;;6.49;100.00
65276;BME280;51875;49.994;14.052;2023-03-20T05:37:26;98455.81;;;6.52;100.00
65276;BME280;51875;49.994;14.052;2023-03-20T05:38:42;98462.00;;;6.43;100.00
65276;BME280;51875;49.994;14.052;2023-03-20T05:39:57;98462.88;;;6.42;100.00
65276;BME280;51875;49.994;14.052;2023-03-20T05:41:13;98470.63;;;6.45;100.00
65276;BME280;51875;49.994;14.052;2023-03-20T05:42:29;98465.47;;;6.41;100.00
65276;BME280;51875;49.994;14.052;2023-03-20T05:43:44;98466.56;;;6.21;100.00
65276;BME280;51875;49.994;14.052;2023-03-20T05:45:00;98469.88;;;6.34;100.00
65276;BME280;51875;49.994;14.052;2023-03-20T05:46:16;98469.78;;;6.45;100.00
65276;BME280;51875;49.994;14.052;2023-03-20T05:47:32;98468.78;;;6.55;100.00
65276;BME280;51875;49.994;14.052;2023-03-20T05:48:47;98468.88;;;6.50;100.00
65276;BME280;51875;49.994;14.052;2023-03-20T05:50:03;98471.47;;;6.49;100.00
65276;BME280;51875;49.994;14.052;2023-03-20T05:51:19;98480.91;;;6.59;100.00
65276;BME280;51875;49.994;14.052;2023-03-20T05:52:35;98483.47;;;6.64;100.00
65276;BME280;51875;49.994;14.052;2023-03-20T05:53:50;98483.78;;;6.33;100.00
65276;BME280;51875;49.994;14.052;2023-03-20T05:55:06;98488.88;;;6.41;100.00
65276;BME280;51875;49.994;14.052;2023-03-20T05:56:22;98484.59;;;6.38;100.00
65276;BME280;51875;49.994;14.052;2023-03-20T05:57:37;98485.31;;;6.53;100.00
65276;BME280;51875;49.994;14.052;2023-03-20T05:58:53;98489.59;;;6.58;100.00
65276;BME280;51875;49.994;14.052;2023-03-20T06:00:09;98484.34;;;6.61;100.00
65276;BME280;51875;49.994;14.052;2023-03-20T06:01:25;98480.78;;;6.69;100.00
65276;BME280;51875;49.994;14.052;2023-03-20T06:02:40;98490.38;;;6.65;100.00
65276;BME280;51875;49.994;14.052;2023-03-20T06:03:56;98481.84;;;6.52;100.00
65276;BME280;51875;49.994;14.052;2023-03-20T06:05:12;98493.19;;;6.45;100.00
65276;BME280;51875;49.994;14.052;2023-03-20T06:06:27;98483.72;;;6.38;100.00
65276;BME280;51875;49.994;14.052;2023-03-20T06:07:43;98495.72;;;6.49;100.00
65276;BME280;51875;49.994;14.052;2023-03-20T06:08:59;98491.59;;;6.31;100.00
65276;BME280;51875;49.994;14.052;2023-03-20T06:10:15;98491.56;;;6.34;100.00
65276;BME280;51875;49.994;14.052;2023-03-20T06:11:30;98489.25;;;5.99;100.00
65276;BME280;51875;49.994;14.052;2023-03-20T06:12:47;98496.88;;;6.24;100.00
65276;BME280;51875;49.994;14.052;2023-03-20T06:14:02;98497.75;;;6.19;100.00
65276;BME280;51875;49.994;14.052;2023-03-20T06:15:18;98493.28;;;6.35;100.00
65276;BME280;51875;49.994;14.052;2023-03-20T06:16:34;98495.13;;;6.24;100.00
65276;BME280;51875;49.994;14.052;2023-03-20T06:17:50;98501.16;;;6.28;100.00
65276;BME280;51875;49.994;14.052;2023-03-20T06:19:06;98503.53;;;6.51;100.00
65276;BME280;51875;49.994;14.052;2023-03-20T06:20:22;98506.16;;;6.48;100.00
65276;BME280;51875;49.994;14.052;2023-03-20T06:21:38;98507.16;;;6.34;100.00
65276;BME280;51875;49.994;14.052;2023-03-20T06:22:53;98510.59;;;6.38;100.00
65276;BME280;51875;49.994;14.052;2023-03-20T06:24:09;98510.44;;;6.54;100.00
65276;BME280;51875;49.994;14.052;2023-03-20T06:25:25;98509.31;;;6.76;100.00
65276;BME280;51875;49.994;14.052;2023-03-20T06:26:41;98503.34;;;6.68;100.00
65276;BME280;51875;49.994;14.052;2023-03-20T06:27:56;98503.34;;;6.68;100.00
65276;BME280;51875;49.994;14.052;2023-03-20T06:29:12;98512.44;;;6.25;100.00
65276;BME280;51875;49.994;14.052;2023-03-20T06:30:28;98502.47;;;6.69;100.00
65276;BME280;51875;49.994;14.052;2023-03-20T06:31:43;98510.97;;;6.82;100.00
65276;BME280;51875;49.994;14.052;2023-03-20T06:32:59;98507.63;;;6.74;100.00
65276;BME280;51875;49.994;14.052;2023-03-20T06:34:15;98510.50;;;6.50;100.00
65276;BME280;51875;49.994;14.052;2023-03-20T06:35:30;98513.84;;;6.60;100.00
65276;BME280;51875;49.994;14.052;2023-03-20T06:36:47;98511.13;;;6.70;100.00
65276;BME280;51875;49.994;14.052;2023-03-20T06:38:02;98506.56;;;6.90;100.00
65276;BME280;51875;49.994;14.052;2023-03-20T06:39:18;98511.66;;;7.00;100.00
65276;BME280;51875;49.994;14.052;2023-03-20T06:40:34;98511.72;;;6.93;100.00
65276;BME280;51875;49.994;14.052;2023-03-20T06:41:50;98515.16;;;6.99;100.00
65276;BME280;51875;49.994;14.052;2023-03-20T06:43:06;98510.00;;;6.92;100.00
65276;BME280;51875;49.994;14.052;2023-03-20T06:44:21;98510.88;;;6.90;100.00
65276;BME280;51875;49.994;14.052;2023-03-20T06:45:38;98511.56;;;7.06;100.00
65276;BME280;51875;49.994;14.052;2023-03-20T06:46:53;98512.47;;;7.03;100.00
65276;BME280;51875;49.994;14.052;2023-03-20T06:48:09;98512.84;;;6.72;100.00
65276;BME280;51875;49.994;14.052;2023-03-20T06:49:25;98520.09;;;6.41;100.00
65276;BME280;51875;49.994;14.052;2023-03-20T06:50:42;98519.72;;;6.78;100.00
65276;BME280;51875;49.994;14.052;2023-03-20T06:51:57;98520.47;;;6.89;100.00
65276;BME280;51875;49.994;14.052;2023-03-20T06:53:13;98525.56;;;6.99;100.00
65276;BME280;51875;49.994;14.052;2023-03-20T06:54:29;98516.88;;;7.00;100.00
65276;BME280;51875;49.994;14.052;2023-03-20T06:55:46;98517.72;;;7.02;100.00
65276;BME280;51875;49.994;14.052;2023-03-20T06:57:02;98523.06;;;6.89;100.00
65276;BME280;51875;49.994;14.052;2023-03-20T06:58:18;98523.81;;;6.99;100.00
65276;BME280;51875;49.994;14.052;2023-03-20T06:59:34;98524.94;;;6.76;100.00
65276;BME280;51875;49.994;14.052;2023-03-20T07:00:50;98524.59;;;7.07;100.00
65276;BME280;51875;49.994;14.052;2023-03-20T07:02:06;98526.22;;;7.15;100.00
65276;BME280;51875;49.994;14.052;2023-03-20T07:03:22;98520.91;;;7.24;100.00
65276;BME280;51875;49.994;14.052;2023-03-20T07:04:38;98525.22;;;7.24;100.00
65276;BME280;51875;49.994;14.052;2023-03-20T07:05:54;98523.66;;;7.13;100.00
65276;BME280;51875;49.994;14.052;2023-03-20T07:07:10;98520.84;;;7.29;100.00
65276;BME280;51875;49.994;14.052;2023-03-20T07:08:25;98517.25;;;7.36;100.00
65276;BME280;51875;49.994;14.052;2023-03-20T07:09:41;98519.69;;;7.48;100.00
65276;BME280;51875;49.994;14.052;2023-03-20T07:10:58;98517.09;;;7.47;100.00
65276;BME280;51875;49.994;14.052;2023-03-20T07:12:14;98517.88;;;7.55;100.00
65276;BME280;51875;49.994;14.052;2023-03-20T07:13:31;98524.84;;;7.53;100.00
65276;BME280;51875;49.994;14.052;2023-03-20T07:14:47;98522.88;;;7.69;100.00
65276;BME280;51875;49.994;14.052;2023-03-20T07:16:03;98516.69;;;7.76;100.00
65276;BME280;51875;49.994;14.052;2023-03-20T07:17:19;98522.59;;;7.86;100.00
65276;BME280;51875;49.994;14.052;2023-03-20T07:18:35;98523.69;;;7.73;100.00
65276;BME280;51875;49.994;14.052;2023-03-20T07:19:51;98519.41;;;7.69;100.00
65276;BME280;51875;49.994;14.052;2023-03-20T07:21:07;98524.44;;;7.83;100.00
65276;BME280;51875;49.994;14.052;2023-03-20T07:22:26;98522.41;;;8.00;100.00